首页
METAR-TAF:

METAR-TAF

机场 :

圣克洛伊岛, 美屬維爾京群島

纬度: 17-42N, 经度: 064-48W, 海拔: 20米

当前天气观测

该预报发布于9小时和35分钟前的00:53 UTC
风速9节,风向东转东北
温度
气压 1015 hPa
能見度: 12.9公里
散云层高于3000英尺

METAR: TISX 220053Z 06009KT 8SM SCT030 A2996

时间: 06:28 (10:28 UTC)

预报

该预报发布于5小时和8分钟前的05:20 UTC
预报有效从22日的 06点(UTC)到 23日的 06点(UTC)
风速8节,风向东转东北
能見度: 10公里
散云层高于2500英尺
散云层高于3000英尺
多云层高于5000英尺
小阵雨
从 22日的 1300点(UTC)
风速12节,风向东转东南
能見度: 10公里
散云层高于3000英尺, 积雨云.
多云层高于5000英尺
附近有雷暴
从 22日的 2000点(UTC)
风速9节,风向
能見度: 10公里
散云层高于2500英尺
多云层高于3500英尺
多云层高于5000英尺
附近有阵雨,

TAF: TISX 220520Z 2206/2306 06008KT P6SM -SHRA SCT025 SCT030 BKN050 FM221300 11012KT P6SM VCTS SCT030CB BKN050 FM222000 10009KT P6SM VCSH SCT025 BKN035 BKN050

超过4000个机场的气象观测和天气预报(METAR&TAF报告)。

可查询的气象台以黄色和红色小点在地图上表示。

将鼠标移到小点上方,可查看气象台名称。

然后点击查看天气观测和预报。

如需切换地图:点击带黑十字的绿色按钮放大地图;点击带横线的绿色按钮缩小地图;或者点击绿色箭头查看邻近地区的地图。


METAR-TAF: